Time;durP1;ratioP1;P1;durP2;ratioP2;P2;SDS_P1;SDS_P2;PMS_P1;PMS_P2;Temp;Humidity;BMP_temperature;BMP_pressure;BME280_temperature;BME280_humidity;BME280_pressure;Samples;Min_cycle;Max_cycle;Signal;HPM_P1;HPM_P2
2023/08/09 00:00:54;;;;;;;1.85;0.80;;;;;;;19.04;47.50;99701.50;4475062;32;33263;-72
2023/08/09 00:03:22;;;;;;;1.65;0.88;;;;;;;19.05;47.56;99703.19;4481899;32;33664;-72
2023/08/09 00:05:50;;;;;;;3.85;1.40;;;;;;;19.00;47.82;99697.41;4482398;32;33923;-72
2023/08/09 00:08:17;;;;;;;1.42;0.77;;;;;;;18.81;48.06;99709.44;4483149;32;34858;-72
2023/08/09 00:10:45;;;;;;;8.85;1.05;;;;;;;18.87;48.19;99705.22;4480313;32;34124;-76
2023/08/09 00:13:12;;;;;;;1.55;1.08;;;;;;;18.85;48.05;99706.25;4483010;32;33677;-73
2023/08/09 00:15:40;;;;;;;1.65;0.95;;;;;;;18.81;48.30;99702.19;4479147;32;34934;-73
2023/08/09 00:18:08;;;;;;;1.37;0.70;;;;;;;18.78;48.33;99702.53;4482636;32;33955;-73
2023/08/09 00:20:36;;;;;;;1.65;0.90;;;;;;;18.76;48.22;99709.13;4480744;32;32911;-74
2023/08/09 00:23:03;;;;;;;2.35;1.12;;;;;;;18.70;48.25;99713.31;4482381;32;33578;-74
2023/08/09 00:25:31;;;;;;;2.97;1.60;;;;;;;18.72;48.21;99714.03;4482595;32;36068;-73
2023/08/09 00:27:59;;;;;;;2.40;1.30;;;;;;;18.70;48.19;99707.88;4481829;32;34818;-74
2023/08/09 00:30:27;;;;;;;1.45;0.75;;;;;;;18.69;48.32;99703.50;4479571;32;33144;-74
2023/08/09 00:32:55;;;;;;;2.60;1.20;;;;;;;18.71;48.40;99711.44;4481201;32;33571;-72
2023/08/09 00:35:22;;;;;;;3.20;1.95;;;;;;;18.60;48.53;99708.06;4477626;32;35424;-73
2023/08/09 00:37:50;;;;;;;1.55;0.98;;;;;;;18.58;48.63;99710.06;4479608;32;33750;-72
2023/08/09 00:40:18;;;;;;;2.25;1.20;;;;;;;18.61;48.64;99698.03;4482935;32;33812;-73
2023/08/09 00:42:46;;;;;;;11.10;1.42;;;;;;;18.53;48.78;99698.06;4481331;32;33673;-71
2023/08/09 00:45:14;;;;;;;4.60;1.60;;;;;;;18.46;49.05;99697.00;4479516;32;34114;-72
2023/08/09 00:47:42;;;;;;;1.85;0.85;;;;;;;18.45;49.13;99693.44;4480934;32;33794;-72
2023/08/09 00:50:11;;;;;;;2.28;0.90;;;;;;;18.42;49.14;99695.66;4480526;32;33240;-72
2023/08/09 00:52:39;;;;;;;1.48;0.93;;;;;;;18.48;48.94;99700.41;4476588;32;33667;-72
2023/08/09 00:55:07;;;;;;;1.65;1.17;;;;;;;18.55;49.29;99712.25;4482054;32;35077;-72
2023/08/09 00:57:36;;;;;;;1.65;1.00;;;;;;;18.58;49.14;99706.50;4482133;32;34154;-72
2023/08/09 01:00:05;;;;;;;1.15;0.60;;;;;;;18.58;49.04;99709.22;4447570;32;32782;-71
2023/08/09 01:02:33;;;;;;;2.47;0.82;;;;;;;18.54;49.02;99697.03;4443555;32;33855;-72
2023/08/09 01:05:04;;;;;;;1.85;0.70;;;;;;;18.53;48.94;99700.75;4445506;32;33993;-72
2023/08/09 01:07:54;;;;;;;1.48;0.80;;;;;;;18.50;48.91;99701.09;4420455;32;33592;-72
2023/08/09 01:10:34;;;;;;;0.98;0.73;;;;;;;18.43;49.24;99700.91;4435428;32;34207;-72
2023/08/09 01:13:03;;;;;;;1.33;0.85;;;;;;;18.32;49.46;99702.06;4447676;32;33855;-72
2023/08/09 01:15:33;;;;;;;2.67;1.10;;;;;;;18.33;49.52;99698.34;4448563;32;35367;-73
2023/08/09 01:18:02;;;;;;;3.42;1.10;;;;;;;18.18;50.18;99691.88;4448005;32;34375;-72
2023/08/09 01:20:31;;;;;;;2.35;1.17;;;;;;;18.21;50.10;99698.81;4446393;32;34560;-70
2023/08/09 01:23:02;;;;;;;1.00;0.88;;;;;;;18.21;50.12;99694.25;4435390;32;33571;-69
2023/08/09 01:25:31;;;;;;;2.03;1.05;;;;;;;18.23;50.27;99703.03;4438889;32;33634;-70
2023/08/09 01:27:59;;;;;;;2.30;1.17;;;;;;;18.21;49.96;99699.66;4449918;32;33696;-70
2023/08/09 01:30:27;;;;;;;6.18;1.50;;;;;;;18.22;49.78;99695.09;4456276;32;33576;-71
2023/08/09 01:32:55;;;;;;;1.65;0.93;;;;;;;18.22;50.02;99697.81;4480579;32;34917;-70
2023/08/09 01:35:25;;;;;;;1.10;0.70;;;;;;;18.22;50.01;99695.09;4481056;32;33853;-69
2023/08/09 01:37:56;;;;;;;1.33;0.75;;;;;;;18.25;49.78;99690.19;4475823;32;33423;-70
2023/08/09 01:40:25;;;;;;;3.85;1.05;;;;;;;18.24;50.07;99688.50;4473209;32;32006;-70
2023/08/09 01:42:52;;;;;;;3.78;1.58;;;;;;;18.19;50.15;99688.13;4482188;32;34158;-72
2023/08/09 01:45:20;;;;;;;1.45;0.75;;;;;;;18.20;49.81;99687.13;4470511;32;34028;-72
2023/08/09 01:47:48;;;;;;;2.72;0.93;;;;;;;18.16;50.00;99692.03;4482324;32;33626;-71
2023/08/09 01:50:22;;;;;;;3.45;0.95;;;;;;;18.11;50.10;99699.81;4481005;32;33370;-73
2023/08/09 01:52:55;;;;;;;2.00;1.30;;;;;;;18.07;50.30;99689.44;4481594;32;34187;-73
2023/08/09 01:55:25;;;;;;;1.60;1.00;;;;;;;18.04;50.33;99687.06;4481088;32;35849;-73
2023/08/09 01:57:54;;;;;;;0.93;0.70;;;;;;;17.96;50.71;99692.47;4481910;32;34339;-73
2023/08/09 02:00:22;;;;;;;1.67;0.75;;;;;;;17.90;50.68;99689.41;4482674;32;34529;-74
2023/08/09 02:02:51;;;;;;;2.45;0.70;;;;;;;17.80;50.97;99696.81;4483428;31;34494;-73
2023/08/09 02:05:19;;;;;;;2.67;0.90;;;;;;;17.91;50.57;99696.53;4484415;32;34577;-73
2023/08/09 02:07:47;;;;;;;3.72;1.27;;;;;;;17.88;50.70;99693.28;4482696;32;34353;-74
2023/08/09 02:10:17;;;;;;;2.92;1.00;;;;;;;17.70;51.33;99690.63;4481476;32;34139;-73
2023/08/09 02:12:47;;;;;;;1.65;0.85;;;;;;;17.70;51.42;99696.06;4482703;32;34685;-74
2023/08/09 02:15:16;;;;;;;4.75;1.58;;;;;;;17.64;51.83;99700.25;4484236;32;34952;-74
2023/08/09 02:17:44;;;;;;;1.40;0.98;;;;;;;17.70;51.84;99696.91;4484020;32;33933;-73
2023/08/09 02:20:12;;;;;;;0.65;0.55;;;;;;;17.69;51.91;99695.22;4484276;32;34351;-73
2023/08/09 02:22:41;;;;;;;2.75;1.23;;;;;;;17.64;51.90;99705.66;4482019;32;34767;-74
2023/08/09 02:25:10;;;;;;;1.40;0.82;;;;;;;17.58;51.94;99700.88;4480726;32;35152;-74
2023/08/09 02:27:39;;;;;;;7.55;1.33;;;;;;;17.50;52.13;99702.72;4481429;32;33768;-74
2023/08/09 02:30:07;;;;;;;1.30;0.60;;;;;;;17.51;52.13;99709.81;4483100;32;34153;-74
2023/08/09 02:32:36;;;;;;;1.48;0.75;;;;;;;17.54;51.92;99715.75;4483299;32;33726;-73
2023/08/09 02:35:05;;;;;;;1.55;0.80;;;;;;;17.52;51.95;99706.94;4481696;32;34873;-74
2023/08/09 02:37:34;;;;;;;2.47;1.40;;;;;;;17.55;52.12;99716.59;4481521;32;33918;-74
2023/08/09 02:40:02;;;;;;;2.05;1.15;;;;;;;17.51;52.31;99717.94;4482050;32;33145;-72
2023/08/09 02:42:30;;;;;;;1.05;0.70;;;;;;;17.58;52.15;99716.28;4481350;32;33589;-72
2023/08/09 02:44:58;;;;;;;2.10;0.70;;;;;;;17.57;52.14;99722.72;4483790;32;33866;-71
2023/08/09 02:47:25;;;;;;;1.50;0.95;;;;;;;17.55;52.27;99720.16;4483272;32;33622;-71
2023/08/09 02:49:53;;;;;;;3.55;1.30;;;;;;;17.47;52.34;99722.81;4483493;32;33005;-71
2023/08/09 02:52:22;;;;;;;1.33;0.95;;;;;;;17.40;52.59;99725.31;4482018;32;33536;-71
2023/08/09 02:54:50;;;;;;;2.42;0.85;;;;;;;17.45;52.48;99728.38;4482372;32;35015;-71
2023/08/09 02:57:18;;;;;;;4.15;0.95;;;;;;;17.43;52.51;99725.00;4480459;32;35012;-71
2023/08/09 02:59:46;;;;;;;3.92;1.10;;;;;;;17.41;52.47;99727.00;4483908;32;33124;-70
2023/08/09 03:02:14;;;;;;;1.55;1.00;;;;;;;17.36;52.62;99728.47;4483144;32;34580;-70
2023/08/09 03:04:42;;;;;;;1.50;1.05;;;;;;;17.26;52.94;99730.44;4483927;32;35832;-70
2023/08/09 03:07:10;;;;;;;1.80;1.02;;;;;;;17.26;52.88;99730.44;4483834;32;34207;-70
2023/08/09 03:09:38;;;;;;;1.15;0.95;;;;;;;17.22;52.85;99736.16;4483812;32;33509;-70
2023/08/09 03:12:06;;;;;;;2.45;1.65;;;;;;;17.15;52.87;99732.41;4481605;32;34677;-70
2023/08/09 03:14:34;;;;;;;3.30;1.05;;;;;;;17.06;53.32;99735.19;4482448;32;35066;-70
2023/08/09 03:17:02;;;;;;;2.17;1.15;;;;;;;17.13;53.17;99744.38;4483874;32;33434;-70
2023/08/09 03:19:30;;;;;;;2.25;1.05;;;;;;;17.14;53.03;99735.25;4482143;32;33236;-70
2023/08/09 03:21:58;;;;;;;4.03;1.60;;;;;;;17.13;53.13;99729.00;4483545;32;33674;-70
2023/08/09 03:24:26;;;;;;;1.90;1.02;;;;;;;17.16;53.34;99736.78;4482690;32;34180;-72
2023/08/09 03:26:55;;;;;;;3.40;1.15;;;;;;;17.18;53.42;99732.09;4483039;32;33789;-72
2023/08/09 03:29:22;;;;;;;11.65;1.35;;;;;;;17.17;53.52;99726.81;4483260;32;32960;-72
2023/08/09 03:31:50;;;;;;;1.27;0.80;;;;;;;17.18;53.64;99732.09;4481935;32;33830;-72
2023/08/09 03:34:18;;;;;;;2.17;1.00;;;;;;;17.23;53.54;99734.31;4482081;32;33797;-72
2023/08/09 03:36:46;;;;;;;2.17;1.37;;;;;;;17.27;53.59;99732.13;4483040;32;34961;-72
2023/08/09 03:39:14;;;;;;;3.95;1.20;;;;;;;17.30;53.61;99735.38;4482484;32;33275;-72
2023/08/09 03:41:42;;;;;;;1.95;0.95;;;;;;;17.30;53.49;99735.38;4479118;32;34884;-72
2023/08/09 03:44:10;;;;;;;5.28;1.92;;;;;;;17.32;53.32;99735.22;4481582;32;34232;-72
2023/08/09 03:46:38;;;;;;;1.67;0.82;;;;;;;17.16;53.90;99731.38;4482928;32;33747;-70
2023/08/09 03:49:06;;;;;;;3.67;1.80;;;;;;;17.22;53.80;99736.16;4470294;32;33211;-70
2023/08/09 03:51:38;;;;;;;3.03;1.85;;;;;;;17.26;53.85;99739.41;4480703;32;33545;-70
2023/08/09 03:54:06;;;;;;;2.70;0.95;;;;;;;17.25;54.08;99732.31;4480812;32;34931;-70
2023/08/09 03:56:34;;;;;;;2.85;1.37;;;;;;;17.30;54.11;99734.53;4480443;32;34781;-70
2023/08/09 03:59:02;;;;;;;3.42;1.30;;;;;;;17.36;54.29;99733.87;4481858;32;33331;-70
2023/08/09 04:01:30;;;;;;;1.75;1.05;;;;;;;17.43;54.37;99741.25;4483294;32;34365;-69
2023/08/09 04:03:58;;;;;;;1.55;0.75;;;;;;;17.45;54.52;99730.25;4482440;32;33985;-72
2023/08/09 04:06:25;;;;;;;2.45;0.95;;;;;;;17.64;54.37;99740.84;4478350;32;35060;-73
2023/08/09 04:08:53;;;;;;;1.35;0.80;;;;;;;17.77;54.07;99743.16;4482014;32;34428;-73
2023/08/09 04:11:21;;;;;;;4.43;2.10;;;;;;;17.81;53.92;99746.38;4481934;32;33362;-72
2023/08/09 04:13:48;;;;;;;4.10;1.12;;;;;;;17.82;53.91;99748.09;4482922;32;34939;-73
2023/08/09 04:16:16;;;;;;;8.77;2.47;;;;;;;17.76;53.90;99757.66;4482417;32;34614;-73
2023/08/09 04:18:44;;;;;;;1.30;0.90;;;;;;;17.69;54.08;99753.91;4482119;32;34239;-74
2023/08/09 04:21:11;;;;;;;2.42;1.20;;;;;;;17.67;54.17;99750.50;4483074;32;35173;-73
2023/08/09 04:23:39;;;;;;;9.63;1.48;;;;;;;17.70;54.47;99755.59;4481789;32;34030;-73
2023/08/09 04:26:06;;;;;;;2.47;1.37;;;;;;;17.82;54.48;99751.66;4482329;32;34702;-72
2023/08/09 04:28:34;;;;;;;1.73;0.90;;;;;;;17.86;54.65;99747.59;4481913;32;33439;-70
2023/08/09 04:31:03;;;;;;;1.08;0.62;;;;;;;17.72;55.23;99750.88;4482930;32;34813;-70
2023/08/09 04:33:31;;;;;;;1.65;1.05;;;;;;;17.95;54.87;99744.94;4482026;32;33934;-70
2023/08/09 04:35:59;;;;;;;1.42;0.82;;;;;;;18.06;54.88;99737.34;4476650;32;33523;-70
2023/08/09 04:38:27;;;;;;;1.20;0.68;;;;;;;18.18;54.77;99728.94;4482573;32;33278;-70
2023/08/09 04:40:55;;;;;;;1.55;0.85;;;;;;;18.28;54.65;99733.22;4456769;32;33401;-70
2023/08/09 04:43:22;;;;;;;1.83;1.02;;;;;;;18.45;54.38;99736.81;4452711;32;35031;-70
2023/08/09 04:45:50;;;;;;;2.25;1.05;;;;;;;18.54;54.15;99735.81;4458999;32;34015;-71
2023/08/09 04:48:18;;;;;;;2.50;1.40;;;;;;;18.61;54.02;99744.13;4457782;32;34405;-71
2023/08/09 04:50:46;;;;;;;2.62;1.42;;;;;;;18.64;53.95;99738.38;4456911;32;34566;-71
2023/08/09 04:53:13;;;;;;;3.65;1.58;;;;;;;18.71;53.83;99736.69;4458148;32;35039;-71
2023/08/09 04:55:41;;;;;;;2.55;1.00;;;;;;;18.78;53.81;99750.44;4453739;32;34648;-71
2023/08/09 04:58:09;;;;;;;2.45;1.27;;;;;;;18.78;53.84;99740.47;4461802;32;34363;-72
2023/08/09 05:00:36;;;;;;;1.90;0.95;;;;;;;18.77;53.82;99744.19;4458962;32;34218;-70
2023/08/09 05:03:05;;;;;;;2.35;1.08;;;;;;;18.81;53.84;99745.56;4461670;32;32433;-70
2023/08/09 05:05:32;;;;;;;2.92;1.55;;;;;;;18.87;53.95;99748.59;4462207;32;34611;-70
2023/08/09 05:08:00;;;;;;;3.00;1.35;;;;;;;18.95;53.88;99740.50;4455269;32;34548;-71
2023/08/09 05:10:28;;;;;;;1.52;1.00;;;;;;;19.03;53.75;99743.19;4460992;32;34514;-74
2023/08/09 05:12:55;;;;;;;4.18;0.90;;;;;;;19.09;53.72;99748.78;4471890;32;34059;-73
2023/08/09 05:15:23;;;;;;;2.10;1.15;;;;;;;19.08;54.13;99752.53;4483573;32;34587;-70
2023/08/09 05:17:51;;;;;;;1.85;0.95;;;;;;;19.36;53.72;99752.19;4479467;32;32989;-71
2023/08/09 05:20:18;;;;;;;2.20;1.27;;;;;;;19.54;53.24;99751.97;4479387;32;34009;-71
2023/08/09 05:22:46;;;;;;;2.45;1.10;;;;;;;19.64;52.99;99757.25;4485143;32;33829;-71
2023/08/09 05:25:14;;;;;;;1.83;1.00;;;;;;;19.66;52.60;99758.78;4482647;32;34634;-71
2023/08/09 05:27:46;;;;;;;1.87;0.95;;;;;;;19.64;52.57;99754.53;4481688;32;33190;-73
2023/08/09 05:30:15;;;;;;;6.55;1.45;;;;;;;19.67;52.44;99754.19;4481727;32;34333;-73
2023/08/09 05:32:42;;;;;;;15.65;1.73;;;;;;;19.72;52.53;99758.09;4481364;32;33997;-73
2023/08/09 05:35:10;;;;;;;2.95;1.42;;;;;;;19.68;52.68;99754.03;4484923;32;34253;-73
2023/08/09 05:37:38;;;;;;;2.67;1.67;;;;;;;19.76;52.69;99756.72;4478709;32;33554;-73
2023/08/09 05:40:12;;;;;;;2.92;1.48;;;;;;;19.84;52.81;99746.84;4473831;32;35058;-73
2023/08/09 05:42:41;;;;;;;3.58;1.33;;;;;;;19.90;53.10;99751.56;4481858;32;33964;-73
2023/08/09 05:45:09;;;;;;;1.33;0.90;;;;;;;19.94;53.36;99744.78;4473181;32;34065;-73
2023/08/09 05:47:36;;;;;;;4.32;1.77;;;;;;;20.05;53.35;99744.41;4481637;32;33463;-73
2023/08/09 05:50:07;;;;;;;4.70;1.85;;;;;;;20.12;53.17;99747.25;4484219;32;33508;-73
2023/08/09 05:52:35;;;;;;;3.45;1.65;;;;;;;20.13;53.23;99746.25;4480214;32;34702;-73
2023/08/09 05:55:05;;;;;;;3.70;1.87;;;;;;;20.34;53.13;99759.22;4480789;32;33385;-73
2023/08/09 05:57:33;;;;;;;5.75;2.12;;;;;;;20.36;53.06;99755.31;4481275;32;34236;-73
2023/08/09 06:00:01;;;;;;;4.28;1.50;;;;;;;20.41;51.99;99757.47;4480726;32;33943;-73
2023/08/09 06:02:34;;;;;;;3.50;1.42;;;;;;;20.46;51.53;99760.53;4476883;32;33825;-73
2023/08/09 06:05:02;;;;;;;3.15;1.42;;;;;;;20.74;51.19;99754.59;4483361;32;33388;-73
2023/08/09 06:07:30;;;;;;;3.28;1.65;;;;;;;20.90;51.26;99758.06;4481838;32;34448;-73
2023/08/09 06:09:58;;;;;;;3.80;1.52;;;;;;;20.83;51.45;99750.78;4480361;32;33900;-73
2023/08/09 06:12:26;;;;;;;4.60;2.03;;;;;;;20.77;52.00;99754.22;4473675;32;34101;-74
2023/08/09 06:14:53;;;;;;;4.05;1.95;;;;;;;20.93;52.34;99744.09;4479108;32;33960;-74
2023/08/09 06:17:21;;;;;;;3.50;1.70;;;;;;;21.27;51.43;99740.06;4481873;32;33476;-74
2023/08/09 06:19:49;;;;;;;1.70;1.08;;;;;;;21.37;51.09;99737.97;4483896;32;33616;-73
2023/08/09 06:22:16;;;;;;;2.50;1.33;;;;;;;21.34;50.93;99745.62;4482121;32;33887;-73
2023/08/09 06:24:45;;;;;;;4.22;2.40;;;;;;;21.37;50.53;99748.84;4482263;32;34009;-74
2023/08/09 06:27:13;;;;;;;2.50;1.30;;;;;;;21.56;51.06;99750.19;4480030;32;34151;-74
2023/08/09 06:29:40;;;;;;;7.95;1.73;;;;;;;21.66;50.65;99747.22;4479776;32;33813;-74
2023/08/09 06:32:08;;;;;;;4.28;1.73;;;;;;;21.53;49.10;99736.97;4478277;32;33795;-74
2023/08/09 06:34:36;;;;;;;2.85;1.73;;;;;;;21.61;49.31;99745.06;4481293;32;33465;-74
2023/08/09 06:37:03;;;;;;;3.55;1.58;;;;;;;21.66;49.79;99743.66;4474907;32;34215;-74
2023/08/09 06:39:34;;;;;;;4.12;1.80;;;;;;;21.90;49.20;99742.53;4474492;32;34755;-74
2023/08/09 06:42:01;;;;;;;3.08;1.17;;;;;;;21.89;49.75;99733.50;4478869;32;35217;-74
2023/08/09 06:44:34;;;;;;;1.65;0.95;;;;;;;21.66;48.50;99747.22;4481693;32;33666;-74
2023/08/09 06:47:02;;;;;;;2.33;1.02;;;;;;;21.91;46.32;99753.25;4480691;32;32856;-73
2023/08/09 06:49:29;;;;;;;1.73;1.20;;;;;;;21.96;45.92;99756.25;4474671;32;33779;-74
2023/08/09 06:51:58;;;;;;;4.00;1.37;;;;;;;21.95;45.13;99757.28;4480622;32;32518;-74
2023/08/09 06:54:27;;;;;;;3.00;1.58;;;;;;;22.09;45.40;99752.88;4480145;32;33833;-74
2023/08/09 06:56:55;;;;;;;4.03;1.83;;;;;;;22.47;45.11;99748.16;4481627;32;32900;-73
2023/08/09 06:59:22;;;;;;;3.40;1.48;;;;;;;22.34;45.62;99753.41;4481606;32;33876;-73
2023/08/09 07:01:50;;;;;;;2.97;1.83;;;;;;;22.42;45.00;99753.31;4477494;32;33742;-78
2023/08/09 07:04:18;;;;;;;2.00;1.15;;;;;;;22.23;47.11;99751.19;4478945;32;34289;-72
2023/08/09 07:06:46;;;;;;;3.72;1.77;;;;;;;22.35;46.58;99741.50;4477014;32;33138;-76
2023/08/09 07:09:15;;;;;;;2.47;1.42;;;;;;;22.67;45.12;99742.06;4467765;32;32448;-76
2023/08/09 07:11:42;;;;;;;3.22;1.55;;;;;;;22.51;45.52;99748.59;4467037;32;32772;-76
2023/08/09 07:14:10;;;;;;;3.47;1.67;;;;;;;22.36;45.79;99753.25;4472455;32;33793;-75
2023/08/09 07:16:38;;;;;;;3.83;1.77;;;;;;;21.98;46.17;99756.06;4467416;32;35093;-76
2023/08/09 07:19:05;;;;;;;3.30;1.50;;;;;;;22.10;46.99;99751.81;4465922;32;33474;-76
2023/08/09 07:21:33;;;;;;;5.72;2.42;;;;;;;21.83;47.04;99750.63;4472281;32;35323;-76
2023/08/09 07:24:01;;;;;;;2.60;1.65;;;;;;;22.35;46.81;99752.41;4467539;32;32663;-76
2023/08/09 07:26:29;;;;;;;9.95;2.90;;;;;;;22.85;45.92;99737.00;4474036;32;34370;-75
2023/08/09 07:28:56;;;;;;;4.97;2.30;;;;;;;23.01;45.39;99736.78;4480314;32;33692;-75
2023/08/09 07:31:24;;;;;;;3.83;1.67;;;;;;;23.19;45.49;99746.41;4481133;32;34102;-75
2023/08/09 07:33:52;;;;;;;3.95;1.70;;;;;;;23.17;44.18;99743.00;4481132;32;34754;-75
2023/08/09 07:36:20;;;;;;;7.37;2.58;;;;;;;23.13;44.84;99739.81;4473915;32;33341;-75
2023/08/09 07:38:48;;;;;;;4.82;2.25;;;;;;;22.98;44.46;99739.88;4482277;32;34615;-76
2023/08/09 07:41:15;;;;;;;4.00;1.80;;;;;;;23.10;44.71;99742.09;4480623;32;34039;-76
2023/08/09 07:43:43;;;;;;;4.40;1.70;;;;;;;23.29;44.86;99741.44;4476397;32;32832;-74
2023/08/09 07:46:11;;;;;;;4.78;1.98;;;;;;;23.31;44.13;99742.09;4475886;32;31284;-74
2023/08/09 07:48:38;;;;;;;5.18;1.75;;;;;;;22.99;44.86;99749.78;4481913;32;33691;-77
2023/08/09 07:51:11;;;;;;;3.62;1.92;;;;;;;23.40;44.46;99740.91;4478840;32;33751;-76
2023/08/09 07:53:39;;;;;;;5.32;2.15;;;;;;;23.35;44.08;99735.19;4481362;32;33936;-75
2023/08/09 07:56:09;;;;;;;5.28;2.30;;;;;;;23.61;44.26;99734.53;4479961;32;35112;-76
2023/08/09 07:58:37;;;;;;;4.55;2.17;;;;;;;23.58;45.48;99743.13;4482026;32;35197;-77
2023/08/09 08:01:05;;;;;;;4.85;2.30;;;;;;;23.47;44.61;99740.97;4477205;32;33569;-77
2023/08/09 08:03:33;;;;;;;3.03;1.65;;;;;;;23.40;44.70;99738.19;4479331;32;33742;-70
2023/08/09 08:06:02;;;;;;;4.05;1.83;;;;;;;23.67;44.60;99735.63;4480744;32;34956;-72
2023/08/09 08:08:29;;;;;;;5.78;2.00;;;;;;;23.87;44.49;99733.91;4481113;32;34709;-72
2023/08/09 08:10:58;;;;;;;6.18;2.42;;;;;;;23.55;45.63;99739.97;4478537;32;35326;-74
2023/08/09 08:13:25;;;;;;;4.00;2.25;;;;;;;23.70;45.35;99732.53;4463402;32;32909;-74
2023/08/09 08:15:53;;;;;;;2.53;1.30;;;;;;;23.85;45.02;99744.22;4463587;32;32848;-73
2023/08/09 08:18:21;;;;;;;5.95;1.90;;;;;;;23.80;45.29;99743.13;4446316;32;33482;-73
2023/08/09 08:20:48;;;;;;;5.75;1.50;;;;;;;23.58;44.93;99745.88;4418586;32;35114;-71
2023/08/09 08:23:16;;;;;;;5.62;1.23;;;;;;;23.38;45.47;99745.72;4421494;32;34798;-80
2023/08/09 08:25:44;;;;;;;3.70;1.15;;;;;;;23.36;44.43;99745.06;4395690;32;35185;-71
2023/08/09 08:28:12;;;;;;;3.35;1.45;;;;;;;23.41;45.20;99745.31;4386124;32;33529;-71
2023/08/09 08:30:39;;;;;;;3.00;1.35;;;;;;;23.59;45.12;99749.44;4386161;32;32968;-73
2023/08/09 08:33:08;;;;;;;2.97;1.55;;;;;;;23.55;44.68;99748.16;4386281;32;33593;-72
2023/08/09 08:35:43;;;;;;;2.92;1.55;;;;;;;23.14;45.08;99749.69;4383737;32;33355;-70
2023/08/09 08:38:12;;;;;;;4.82;1.67;;;;;;;22.98;45.62;99742.63;4388930;32;34870;-70
2023/08/09 08:40:40;;;;;;;3.28;1.33;;;;;;;22.84;46.38;99748.13;4387625;32;33566;-71
2023/08/09 08:43:08;;;;;;;6.22;1.58;;;;;;;23.22;45.65;99746.00;4388876;32;33925;-70
2023/08/09 08:45:38;;;;;;;4.12;1.52;;;;;;;23.02;46.51;99743.94;4409931;32;32946;-70
2023/08/09 08:48:07;;;;;;;4.00;1.65;;;;;;;23.49;45.20;99741.59;4410201;32;32721;-72
2023/08/09 08:50:41;;;;;;;2.83;1.45;;;;;;;23.41;44.85;99750.78;4417496;32;32859;-72
2023/08/09 08:53:11;;;;;;;5.40;1.62;;;;;;;23.40;45.55;99738.19;4414363;32;33868;-73
2023/08/09 08:55:39;;;;;;;2.75;1.40;;;;;;;23.55;45.54;99743.53;4418595;32;33534;-74
2023/08/09 08:58:08;;;;;;;7.32;1.50;;;;;;;23.73;45.52;99742.22;4451125;32;33523;-74
2023/08/09 09:00:36;;;;;;;4.87;2.05;;;;;;;23.66;45.39;99742.16;4482565;32;33510;-71
2023/08/09 09:03:04;;;;;;;2.72;1.55;;;;;;;23.57;46.02;99737.88;4482840;32;33960;-71
2023/08/09 09:05:32;;;;;;;4.40;1.77;;;;;;;23.78;44.94;99728.78;4481362;32;33501;-71
2023/08/09 09:08:00;;;;;;;3.53;1.30;;;;;;;24.14;44.73;99731.28;4483003;32;34695;-71
2023/08/09 09:10:27;;;;;;;3.70;1.27;;;;;;;23.90;46.00;99736.22;4482903;32;34011;-71
2023/08/09 09:12:58;;;;;;;3.62;1.40;;;;;;;23.78;44.50;99737.00;4481644;32;34955;-71
2023/08/09 09:15:27;;;;;;;2.45;1.15;;;;;;;24.11;44.41;99735.31;4480515;32;34803;-73
2023/08/09 09:17:55;;;;;;;6.25;1.75;;;;;;;24.02;44.31;99733.78;4476119;32;34054;-73
2023/08/09 09:20:33;;;;;;;4.53;1.98;;;;;;;23.92;43.89;99733.31;4480573;32;34739;-73
2023/08/09 09:23:01;;;;;;;10.32;1.75;;;;;;;23.74;44.83;99730.25;4481491;32;33773;-70
2023/08/09 09:25:29;;;;;;;5.07;1.60;;;;;;;23.98;44.78;99727.03;4482311;32;33224;-71
2023/08/09 09:27:57;;;;;;;3.37;1.45;;;;;;;24.02;45.18;99728.31;4482085;32;33481;-71
2023/08/09 09:30:31;;;;;;;1.55;1.10;;;;;;;24.08;44.77;99730.25;4478456;32;34991;-71
2023/08/09 09:33:03;;;;;;;6.73;1.90;;;;;;;24.40;44.24;99725.97;4479638;32;33892;-70
2023/08/09 09:35:33;;;;;;;3.92;1.60;;;;;;;24.40;44.10;99723.22;4482972;32;33231;-70
2023/08/09 09:38:02;;;;;;;3.70;1.60;;;;;;;24.28;44.91;99721.28;4480437;32;33678;-70
2023/08/09 09:40:33;;;;;;;2.72;1.42;;;;;;;24.45;44.55;99724.53;4482549;32;34057;-70
2023/08/09 09:43:06;;;;;;;5.03;1.53;;;;;;;24.36;45.12;99726.56;4481236;32;34503;-70
2023/08/09 09:45:36;;;;;;;4.68;0.85;;;;;;;24.67;44.03;99726.06;4480524;32;33578;-70
2023/08/09 09:48:16;;;;;;;3.20;1.40;;;;;;;24.25;42.62;99716.22;4479027;32;34330;-70
2023/08/09 09:50:44;;;;;;;2.08;0.93;;;;;;;24.47;41.89;99719.69;4475384;32;33932;-71
2023/08/09 09:53:15;;;;;;;1.75;1.00;;;;;;;24.09;41.33;99717.41;4482754;32;33485;-70
2023/08/09 09:55:43;;;;;;;3.40;0.95;;;;;;;24.08;41.20;99722.03;4482605;32;34288;-70
2023/08/09 09:58:15;;;;;;;2.25;1.15;;;;;;;24.35;40.93;99717.50;4482178;32;34197;-70
2023/08/09 10:00:48;;;;;;;2.85;1.00;;;;;;;23.90;41.72;99724.47;4483510;32;34935;-70
2023/08/09 10:03:18;;;;;;;2.42;1.00;;;;;;;24.45;40.05;99722.62;4482165;32;32215;-70
2023/08/09 10:05:47;;;;;;;1.98;1.02;;;;;;;24.51;40.26;99721.81;4479471;32;33171;-70
2023/08/09 10:08:16;;;;;;;3.67;1.27;;;;;;;24.68;39.77;99711.31;4456622;32;34418;-69
2023/08/09 10:10:45;;;;;;;2.47;1.02;;;;;;;24.78;38.94;99710.91;4458871;32;33622;-71
2023/08/09 10:13:21;;;;;;;2.20;0.90;;;;;;;24.51;39.71;99710.87;4457810;32;34355;-70
2023/08/09 10:15:54;;;;;;;1.98;0.75;;;;;;;24.31;38.42;99709.94;4450016;32;33096;-70
2023/08/09 10:18:32;;;;;;;2.58;1.10;;;;;;;23.88;39.21;99707.41;4442420;32;33718;-70
2023/08/09 10:21:01;;;;;;;1.25;0.70;;;;;;;24.10;38.50;99699.94;4459443;32;35118;-70
2023/08/09 10:23:29;;;;;;;2.10;1.05;;;;;;;24.20;39.56;99703.13;4450449;32;34806;-70
2023/08/09 10:25:57;;;;;;;2.28;1.02;;;;;;;23.81;40.73;99707.38;4459496;32;33035;-69
2023/08/09 10:28:47;;;;;;;1.23;0.73;;;;;;;24.17;38.47;99703.53;4454379;32;34547;-69
2023/08/09 10:31:15;;;;;;;2.42;1.00;;;;;;;24.52;38.33;99704.34;4457285;32;33466;-71
2023/08/09 10:34:20;;;;;;;1.80;0.85;;;;;;;24.38;39.52;99703.44;4446342;32;36100;-70
2023/08/09 10:36:49;;;;;;;0.85;0.52;;;;;;;23.95;39.22;99702.84;4387225;32;34223;-70
2023/08/09 10:39:20;;;;;;;1.80;0.85;;;;;;;23.73;39.48;99699.34;4388151;32;33758;-70
2023/08/09 10:42:05;;;;;;;0.73;0.62;;;;;;;24.12;39.83;99697.88;4398930;32;34004;-71
2023/08/09 10:44:39;;;;;;;3.72;0.80;;;;;;;24.39;38.31;99702.38;4398915;32;34575;-71
2023/08/09 10:47:13;;;;;;;1.40;0.73;;;;;;;24.51;38.91;99705.38;4397818;32;33348;-71
2023/08/09 10:49:53;;;;;;;1.40;0.68;;;;;;;24.51;38.97;99701.81;4403120;32;34950;-70
2023/08/09 10:52:33;;;;;;;1.67;0.93;;;;;;;24.43;38.82;99704.72;4396515;32;33849;-71
2023/08/09 10:55:25;;;;;;;2.00;1.00;;;;;;;24.35;39.51;99703.00;4403429;32;34291;-70
2023/08/09 10:57:54;;;;;;;1.27;0.60;;;;;;;24.57;38.19;99707.31;4402866;32;33308;-70
2023/08/09 11:00:23;;;;;;;1.77;0.82;;;;;;;24.79;38.67;99701.69;4402936;32;33744;-70
2023/08/09 11:02:53;;;;;;;2.20;0.80;;;;;;;24.91;37.74;99701.88;4401968;32;35070;-70
2023/08/09 11:05:22;;;;;;;2.28;0.70;;;;;;;24.51;38.81;99697.19;4403191;32;35031;-70
2023/08/09 11:07:56;;;;;;;1.00;0.75;;;;;;;24.07;38.67;99698.47;4401398;32;34252;-70
2023/08/09 11:10:34;;;;;;;2.45;1.05;;;;;;;24.13;37.81;99699.53;4401991;32;33860;-70
2023/08/09 11:13:13;;;;;;;2.03;0.98;;;;;;;23.80;38.22;99694.75;4427676;32;34147;-70
2023/08/09 11:15:50;;;;;;;1.98;0.90;;;;;;;23.94;37.87;99693.78;4482291;32;34673;-70
2023/08/09 11:18:18;;;;;;;2.05;1.00;;;;;;;24.20;38.10;99694.09;4481096;32;33425;-70
2023/08/09 11:20:45;;;;;;;2.90;1.23;;;;;;;24.42;38.50;99690.22;4476978;32;35070;-70
2023/08/09 11:23:13;;;;;;;2.83;1.25;;;;;;;24.64;37.61;99696.37;4480376;32;34838;-69
2023/08/09 11:25:41;;;;;;;1.90;0.80;;;;;;;24.39;38.46;99696.91;4480029;32;34576;-70
2023/08/09 11:28:12;;;;;;;2.42;1.15;;;;;;;24.03;39.14;99699.06;4479787;32;31693;-71
2023/08/09 11:30:39;;;;;;;1.90;1.02;;;;;;;23.80;38.67;99694.75;4482524;32;35053;-71
2023/08/09 11:33:09;;;;;;;2.37;0.93;;;;;;;23.91;39.22;99696.06;4481211;32;34848;-73
2023/08/09 11:35:40;;;;;;;4.07;1.00;;;;;;;24.26;38.32;99699.59;4480498;32;33229;-73
2023/08/09 11:38:09;;;;;;;1.27;0.80;;;;;;;24.43;38.10;99702.00;4474815;32;33733;-73
2023/08/09 11:40:50;;;;;;;2.78;0.93;;;;;;;24.38;37.50;99686.19;4475833;32;35402;-74
2023/08/09 11:43:21;;;;;;;2.50;1.00;;;;;;;24.14;37.45;99690.28;4481620;32;33994;-75